sensor_id;sensor_type;location;lat;lon;timestamp;P1;durP1;ratioP1;P2;durP2;ratioP2
77451;SDS011;66537;52.370;4.832;2024-02-26T00:01:47;13.63;;;6.25;;
77451;SDS011;66537;52.370;4.832;2024-02-26T00:04:13;12.18;;;5.45;;
77451;SDS011;66537;52.370;4.832;2024-02-26T00:06:38;14.18;;;6.13;;
77451;SDS011;66537;52.370;4.832;2024-02-26T00:09:09;15.50;;;6.40;;
77451;SDS011;66537;52.370;4.832;2024-02-26T00:11:38;15.18;;;6.68;;
77451;SDS011;66537;52.370;4.832;2024-02-26T00:14:04;13.98;;;5.75;;
77451;SDS011;66537;52.370;4.832;2024-02-26T00:16:29;19.98;;;7.78;;
77451;SDS011;66537;52.370;4.832;2024-02-26T00:18:55;17.45;;;7.00;;
77451;SDS011;66537;52.370;4.832;2024-02-26T00:21:20;14.97;;;6.67;;
77451;SDS011;66537;52.370;4.832;2024-02-26T00:23:45;15.90;;;6.55;;
77451;SDS011;66537;52.370;4.832;2024-02-26T00:26:11;15.10;;;6.30;;
77451;SDS011;66537;52.370;4.832;2024-02-26T00:28:36;14.10;;;6.70;;
77451;SDS011;66537;52.370;4.832;2024-02-26T00:31:02;16.70;;;6.80;;
77451;SDS011;66537;52.370;4.832;2024-02-26T00:33:28;15.50;;;6.53;;
77451;SDS011;66537;52.370;4.832;2024-02-26T00:35:53;12.70;;;6.15;;
77451;SDS011;66537;52.370;4.832;2024-02-26T00:38:18;12.65;;;5.90;;
77451;SDS011;66537;52.370;4.832;2024-02-26T00:40:44;15.47;;;7.17;;
77451;SDS011;66537;52.370;4.832;2024-02-26T00:43:09;14.48;;;6.13;;
77451;SDS011;66537;52.370;4.832;2024-02-26T00:45:34;12.63;;;5.90;;
77451;SDS011;66537;52.370;4.832;2024-02-26T00:48:00;13.05;;;5.93;;
77451;SDS011;66537;52.370;4.832;2024-02-26T00:50:34;15.18;;;6.68;;
77451;SDS011;66537;52.370;4.832;2024-02-26T00:53:00;12.77;;;6.45;;
77451;SDS011;66537;52.370;4.832;2024-02-26T00:55:26;12.93;;;6.82;;
77451;SDS011;66537;52.370;4.832;2024-02-26T00:57:52;14.37;;;6.30;;
77451;SDS011;66537;52.370;4.832;2024-02-26T01:00:17;17.13;;;6.60;;
77451;SDS011;66537;52.370;4.832;2024-02-26T01:02:43;13.60;;;6.47;;
77451;SDS011;66537;52.370;4.832;2024-02-26T01:05:11;15.95;;;6.72;;
77451;SDS011;66537;52.370;4.832;2024-02-26T01:07:37;14.90;;;6.28;;
77451;SDS011;66537;52.370;4.832;2024-02-26T01:10:02;15.15;;;6.75;;
77451;SDS011;66537;52.370;4.832;2024-02-26T01:12:28;14.10;;;5.90;;
77451;SDS011;66537;52.370;4.832;2024-02-26T01:14:53;12.65;;;5.82;;
77451;SDS011;66537;52.370;4.832;2024-02-26T01:17:19;12.65;;;5.63;;
77451;SDS011;66537;52.370;4.832;2024-02-26T01:19:44;12.40;;;4.97;;
77451;SDS011;66537;52.370;4.832;2024-02-26T01:22:09;11.93;;;4.97;;
77451;SDS011;66537;52.370;4.832;2024-02-26T01:24:35;11.90;;;5.32;;
77451;SDS011;66537;52.370;4.832;2024-02-26T01:27:00;13.73;;;4.80;;
77451;SDS011;66537;52.370;4.832;2024-02-26T01:29:25;11.93;;;5.20;;
77451;SDS011;66537;52.370;4.832;2024-02-26T01:31:50;13.00;;;4.70;;
77451;SDS011;66537;52.370;4.832;2024-02-26T01:34:16;12.83;;;5.20;;
77451;SDS011;66537;52.370;4.832;2024-02-26T01:36:43;13.20;;;5.90;;
77451;SDS011;66537;52.370;4.832;2024-02-26T01:39:08;11.82;;;5.03;;
77451;SDS011;66537;52.370;4.832;2024-02-26T01:41:37;12.73;;;5.32;;
77451;SDS011;66537;52.370;4.832;2024-02-26T01:44:03;12.40;;;5.10;;
77451;SDS011;66537;52.370;4.832;2024-02-26T01:46:29;12.77;;;4.85;;
77451;SDS011;66537;52.370;4.832;2024-02-26T01:48:56;12.68;;;5.55;;
77451;SDS011;66537;52.370;4.832;2024-02-26T01:51:21;11.87;;;5.30;;
77451;SDS011;66537;52.370;4.832;2024-02-26T01:53:47;16.92;;;5.65;;
77451;SDS011;66537;52.370;4.832;2024-02-26T01:56:13;13.70;;;6.43;;
77451;SDS011;66537;52.370;4.832;2024-02-26T01:58:41;12.25;;;5.80;;
77451;SDS011;66537;52.370;4.832;2024-02-26T02:01:08;15.60;;;6.15;;
77451;SDS011;66537;52.370;4.832;2024-02-26T02:03:33;16.50;;;6.80;;
77451;SDS011;66537;52.370;4.832;2024-02-26T02:05:58;13.40;;;6.43;;
77451;SDS011;66537;52.370;4.832;2024-02-26T02:08:24;16.08;;;6.82;;
77451;SDS011;66537;52.370;4.832;2024-02-26T02:10:50;14.35;;;7.10;;
77451;SDS011;66537;52.370;4.832;2024-02-26T02:13:15;15.27;;;6.68;;
77451;SDS011;66537;52.370;4.832;2024-02-26T02:15:41;17.80;;;7.57;;
77451;SDS011;66537;52.370;4.832;2024-02-26T02:18:06;17.98;;;8.05;;
77451;SDS011;66537;52.370;4.832;2024-02-26T02:20:32;17.00;;;6.95;;
77451;SDS011;66537;52.370;4.832;2024-02-26T02:23:02;18.23;;;7.75;;
77451;SDS011;66537;52.370;4.832;2024-02-26T02:25:27;18.05;;;7.13;;
77451;SDS011;66537;52.370;4.832;2024-02-26T02:27:53;17.80;;;7.50;;
77451;SDS011;66537;52.370;4.832;2024-02-26T02:30:27;19.13;;;7.90;;
77451;SDS011;66537;52.370;4.832;2024-02-26T02:32:54;17.73;;;7.53;;
77451;SDS011;66537;52.370;4.832;2024-02-26T02:35:20;19.88;;;8.68;;
77451;SDS011;66537;52.370;4.832;2024-02-26T02:37:45;18.27;;;8.20;;
77451;SDS011;66537;52.370;4.832;2024-02-26T02:40:11;22.67;;;9.47;;
77451;SDS011;66537;52.370;4.832;2024-02-26T02:42:36;19.85;;;8.95;;
77451;SDS011;66537;52.370;4.832;2024-02-26T02:45:01;19.77;;;8.43;;
77451;SDS011;66537;52.370;4.832;2024-02-26T02:47:27;20.30;;;8.02;;
77451;SDS011;66537;52.370;4.832;2024-02-26T02:49:52;21.47;;;8.83;;
77451;SDS011;66537;52.370;4.832;2024-02-26T02:52:17;21.63;;;8.95;;
77451;SDS011;66537;52.370;4.832;2024-02-26T02:54:43;20.20;;;8.27;;
77451;SDS011;66537;52.370;4.832;2024-02-26T02:57:08;21.55;;;8.18;;
77451;SDS011;66537;52.370;4.832;2024-02-26T02:59:35;22.80;;;8.90;;
77451;SDS011;66537;52.370;4.832;2024-02-26T03:02:00;25.33;;;10.48;;
77451;SDS011;66537;52.370;4.832;2024-02-26T03:04:26;23.00;;;10.00;;
77451;SDS011;66537;52.370;4.832;2024-02-26T03:06:51;23.20;;;8.93;;
77451;SDS011;66537;52.370;4.832;2024-02-26T03:09:16;22.13;;;8.63;;
77451;SDS011;66537;52.370;4.832;2024-02-26T03:11:42;20.90;;;9.13;;
77451;SDS011;66537;52.370;4.832;2024-02-26T03:14:07;25.30;;;9.80;;
77451;SDS011;66537;52.370;4.832;2024-02-26T03:16:33;21.70;;;8.40;;
77451;SDS011;66537;52.370;4.832;2024-02-26T03:18:59;24.90;;;8.87;;
77451;SDS011;66537;52.370;4.832;2024-02-26T03:21:25;19.23;;;8.57;;
77451;SDS011;66537;52.370;4.832;2024-02-26T03:23:50;20.73;;;8.77;;
77451;SDS011;66537;52.370;4.832;2024-02-26T03:26:16;22.30;;;9.00;;
77451;SDS011;66537;52.370;4.832;2024-02-26T03:28:41;22.42;;;9.48;;
77451;SDS011;66537;52.370;4.832;2024-02-26T03:31:06;23.50;;;9.18;;
77451;SDS011;66537;52.370;4.832;2024-02-26T03:33:32;24.02;;;9.73;;
77451;SDS011;66537;52.370;4.832;2024-02-26T03:35:57;23.23;;;9.00;;
77451;SDS011;66537;52.370;4.832;2024-02-26T03:38:22;21.17;;;8.80;;
77451;SDS011;66537;52.370;4.832;2024-02-26T03:40:48;26.95;;;9.90;;
77451;SDS011;66537;52.370;4.832;2024-02-26T03:43:13;24.07;;;9.60;;
77451;SDS011;66537;52.370;4.832;2024-02-26T03:45:39;24.42;;;9.98;;
77451;SDS011;66537;52.370;4.832;2024-02-26T03:48:04;22.40;;;9.30;;
77451;SDS011;66537;52.370;4.832;2024-02-26T03:50:30;22.40;;;9.50;;
77451;SDS011;66537;52.370;4.832;2024-02-26T03:52:55;23.10;;;9.53;;
77451;SDS011;66537;52.370;4.832;2024-02-26T03:55:22;24.67;;;10.43;;
77451;SDS011;66537;52.370;4.832;2024-02-26T03:57:50;21.88;;;8.90;;
77451;SDS011;66537;52.370;4.832;2024-02-26T04:00:16;23.80;;;9.73;;
77451;SDS011;66537;52.370;4.832;2024-02-26T04:02:42;19.55;;;8.32;;
77451;SDS011;66537;52.370;4.832;2024-02-26T04:05:10;23.45;;;8.88;;
77451;SDS011;66537;52.370;4.832;2024-02-26T04:07:36;23.55;;;9.60;;
77451;SDS011;66537;52.370;4.832;2024-02-26T04:10:01;26.30;;;9.85;;
77451;SDS011;66537;52.370;4.832;2024-02-26T04:12:29;22.63;;;9.40;;
77451;SDS011;66537;52.370;4.832;2024-02-26T04:14:55;27.15;;;9.80;;
77451;SDS011;66537;52.370;4.832;2024-02-26T04:17:20;25.58;;;9.75;;
77451;SDS011;66537;52.370;4.832;2024-02-26T04:19:46;26.27;;;9.82;;
77451;SDS011;66537;52.370;4.832;2024-02-26T04:22:11;24.37;;;10.30;;
77451;SDS011;66537;52.370;4.832;2024-02-26T04:24:36;26.15;;;10.63;;
77451;SDS011;66537;52.370;4.832;2024-02-26T04:27:02;28.60;;;11.25;;
77451;SDS011;66537;52.370;4.832;2024-02-26T04:29:27;29.63;;;11.48;;
77451;SDS011;66537;52.370;4.832;2024-02-26T04:31:52;26.20;;;10.67;;
77451;SDS011;66537;52.370;4.832;2024-02-26T04:34:18;29.10;;;11.57;;
77451;SDS011;66537;52.370;4.832;2024-02-26T04:36:43;29.17;;;11.53;;
77451;SDS011;66537;52.370;4.832;2024-02-26T04:39:09;25.08;;;10.20;;
77451;SDS011;66537;52.370;4.832;2024-02-26T04:41:35;32.80;;;12.63;;
77451;SDS011;66537;52.370;4.832;2024-02-26T04:44:00;29.00;;;10.90;;
77451;SDS011;66537;52.370;4.832;2024-02-26T04:46:26;29.55;;;12.00;;
77451;SDS011;66537;52.370;4.832;2024-02-26T04:48:53;32.92;;;12.18;;
77451;SDS011;66537;52.370;4.832;2024-02-26T04:51:18;28.30;;;11.95;;
77451;SDS011;66537;52.370;4.832;2024-02-26T04:53:44;30.30;;;12.47;;
77451;SDS011;66537;52.370;4.832;2024-02-26T04:56:09;30.57;;;12.23;;
77451;SDS011;66537;52.370;4.832;2024-02-26T04:58:34;29.23;;;12.27;;
77451;SDS011;66537;52.370;4.832;2024-02-26T05:01:00;30.38;;;13.13;;
77451;SDS011;66537;52.370;4.832;2024-02-26T05:03:25;33.87;;;13.33;;
77451;SDS011;66537;52.370;4.832;2024-02-26T05:05:50;35.23;;;14.03;;
77451;SDS011;66537;52.370;4.832;2024-02-26T05:08:16;31.98;;;13.48;;
77451;SDS011;66537;52.370;4.832;2024-02-26T05:10:41;29.83;;;12.65;;
77451;SDS011;66537;52.370;4.832;2024-02-26T05:13:08;32.70;;;12.35;;
77451;SDS011;66537;52.370;4.832;2024-02-26T05:15:34;32.97;;;12.85;;
77451;SDS011;66537;52.370;4.832;2024-02-26T05:18:00;32.65;;;13.55;;
77451;SDS011;66537;52.370;4.832;2024-02-26T05:20:25;30.73;;;13.13;;
77451;SDS011;66537;52.370;4.832;2024-02-26T05:22:50;34.28;;;12.75;;
77451;SDS011;66537;52.370;4.832;2024-02-26T05:25:16;32.83;;;14.02;;
77451;SDS011;66537;52.370;4.832;2024-02-26T05:27:43;33.67;;;14.05;;
77451;SDS011;66537;52.370;4.832;2024-02-26T05:30:09;31.90;;;13.63;;
77451;SDS011;66537;52.370;4.832;2024-02-26T05:32:35;32.28;;;13.15;;
77451;SDS011;66537;52.370;4.832;2024-02-26T05:35:00;30.13;;;13.60;;
77451;SDS011;66537;52.370;4.832;2024-02-26T05:37:28;30.40;;;12.65;;
77451;SDS011;66537;52.370;4.832;2024-02-26T05:39:53;29.85;;;13.00;;
77451;SDS011;66537;52.370;4.832;2024-02-26T05:42:18;30.07;;;12.40;;
77451;SDS011;66537;52.370;4.832;2024-02-26T05:44:43;30.33;;;12.53;;
77451;SDS011;66537;52.370;4.832;2024-02-26T05:47:09;26.80;;;11.10;;
77451;SDS011;66537;52.370;4.832;2024-02-26T05:49:34;28.80;;;12.23;;
77451;SDS011;66537;52.370;4.832;2024-02-26T05:51:59;27.83;;;11.73;;
77451;SDS011;66537;52.370;4.832;2024-02-26T05:54:25;28.40;;;12.43;;
77451;SDS011;66537;52.370;4.832;2024-02-26T05:56:50;25.80;;;10.50;;
77451;SDS011;66537;52.370;4.832;2024-02-26T05:59:15;27.55;;;11.45;;
77451;SDS011;66537;52.370;4.832;2024-02-26T06:01:41;25.58;;;10.90;;
77451;SDS011;66537;52.370;4.832;2024-02-26T06:04:06;24.33;;;11.27;;
77451;SDS011;66537;52.370;4.832;2024-02-26T06:06:32;26.98;;;10.88;;
77451;SDS011;66537;52.370;4.832;2024-02-26T06:08:57;22.07;;;9.00;;
77451;SDS011;66537;52.370;4.832;2024-02-26T06:11:22;24.40;;;9.80;;
77451;SDS011;66537;52.370;4.832;2024-02-26T06:13:48;23.93;;;9.40;;
77451;SDS011;66537;52.370;4.832;2024-02-26T06:16:13;25.90;;;10.53;;
77451;SDS011;66537;52.370;4.832;2024-02-26T06:18:38;20.88;;;8.85;;
77451;SDS011;66537;52.370;4.832;2024-02-26T06:21:04;21.52;;;8.95;;
77451;SDS011;66537;52.370;4.832;2024-02-26T06:23:31;22.02;;;8.40;;
77451;SDS011;66537;52.370;4.832;2024-02-26T06:25:57;19.50;;;8.23;;
77451;SDS011;66537;52.370;4.832;2024-02-26T06:28:22;19.00;;;7.63;;
77451;SDS011;66537;52.370;4.832;2024-02-26T06:30:47;21.27;;;8.50;;
77451;SDS011;66537;52.370;4.832;2024-02-26T06:33:12;23.03;;;7.90;;
77451;SDS011;66537;52.370;4.832;2024-02-26T06:35:39;25.35;;;8.77;;
77451;SDS011;66537;52.370;4.832;2024-02-26T06:38:04;20.53;;;8.70;;
77451;SDS011;66537;52.370;4.832;2024-02-26T06:40:29;18.07;;;7.63;;
77451;SDS011;66537;52.370;4.832;2024-02-26T06:42:55;18.63;;;7.80;;
77451;SDS011;66537;52.370;4.832;2024-02-26T06:45:20;17.57;;;7.00;;
77451;SDS011;66537;52.370;4.832;2024-02-26T06:47:45;16.63;;;7.10;;
77451;SDS011;66537;52.370;4.832;2024-02-26T06:50:14;15.30;;;5.77;;
77451;SDS011;66537;52.370;4.832;2024-02-26T06:52:39;17.45;;;6.35;;
77451;SDS011;66537;52.370;4.832;2024-02-26T06:55:05;15.10;;;6.35;;
77451;SDS011;66537;52.370;4.832;2024-02-26T06:57:33;17.27;;;6.68;;
77451;SDS011;66537;52.370;4.832;2024-02-26T06:59:58;14.40;;;5.68;;
77451;SDS011;66537;52.370;4.832;2024-02-26T07:02:24;16.38;;;5.88;;
77451;SDS011;66537;52.370;4.832;2024-02-26T07:04:49;14.30;;;5.72;;
77451;SDS011;66537;52.370;4.832;2024-02-26T07:07:15;12.23;;;5.20;;
77451;SDS011;66537;52.370;4.832;2024-02-26T07:09:42;18.25;;;6.30;;
77451;SDS011;66537;52.370;4.832;2024-02-26T07:12:08;14.27;;;5.32;;
77451;SDS011;66537;52.370;4.832;2024-02-26T07:14:34;12.63;;;4.88;;
77451;SDS011;66537;52.370;4.832;2024-02-26T07:16:59;16.70;;;5.28;;
77451;SDS011;66537;52.370;4.832;2024-02-26T07:19:24;11.10;;;4.20;;
77451;SDS011;66537;52.370;4.832;2024-02-26T07:21:50;13.10;;;4.63;;
77451;SDS011;66537;52.370;4.832;2024-02-26T07:24:15;22.13;;;5.87;;
77451;SDS011;66537;52.370;4.832;2024-02-26T07:26:40;12.13;;;4.53;;
77451;SDS011;66537;52.370;4.832;2024-02-26T07:29:06;11.73;;;3.93;;
77451;SDS011;66537;52.370;4.832;2024-02-26T07:31:31;10.43;;;3.97;;
77451;SDS011;66537;52.370;4.832;2024-02-26T07:33:57;9.83;;;4.47;;
77451;SDS011;66537;52.370;4.832;2024-02-26T07:36:22;10.97;;;4.17;;
77451;SDS011;66537;52.370;4.832;2024-02-26T07:38:47;11.30;;;4.73;;
77451;SDS011;66537;52.370;4.832;2024-02-26T07:41:12;12.07;;;4.00;;
77451;SDS011;66537;52.370;4.832;2024-02-26T07:43:38;13.05;;;4.05;;
77451;SDS011;66537;52.370;4.832;2024-02-26T07:46:05;10.23;;;4.03;;
77451;SDS011;66537;52.370;4.832;2024-02-26T07:48:31;12.30;;;3.83;;
77451;SDS011;66537;52.370;4.832;2024-02-26T07:50:57;11.20;;;4.37;;
77451;SDS011;66537;52.370;4.832;2024-02-26T07:53:24;11.93;;;4.40;;
77451;SDS011;66537;52.370;4.832;2024-02-26T07:55:49;9.37;;;3.97;;
77451;SDS011;66537;52.370;4.832;2024-02-26T07:58:14;10.47;;;3.67;;
77451;SDS011;66537;52.370;4.832;2024-02-26T08:00:39;10.30;;;3.57;;
77451;SDS011;66537;52.370;4.832;2024-02-26T08:03:05;7.97;;;3.70;;
77451;SDS011;66537;52.370;4.832;2024-02-26T08:05:30;9.52;;;3.50;;
77451;SDS011;66537;52.370;4.832;2024-02-26T08:07:55;11.37;;;4.30;;
77451;SDS011;66537;52.370;4.832;2024-02-26T08:10:21;10.77;;;3.63;;
77451;SDS011;66537;52.370;4.832;2024-02-26T08:12:46;8.82;;;3.60;;
77451;SDS011;66537;52.370;4.832;2024-02-26T08:15:12;8.57;;;3.20;;
77451;SDS011;66537;52.370;4.832;2024-02-26T08:17:37;8.30;;;3.17;;
77451;SDS011;66537;52.370;4.832;2024-02-26T08:20:03;9.18;;;3.55;;
77451;SDS011;66537;52.370;4.832;2024-02-26T08:22:29;7.50;;;2.83;;
77451;SDS011;66537;52.370;4.832;2024-02-26T08:24:54;8.03;;;3.90;;
77451;SDS011;66537;52.370;4.832;2024-02-26T08:27:20;8.13;;;3.07;;
77451;SDS011;66537;52.370;4.832;2024-02-26T08:29:45;8.30;;;3.40;;
77451;SDS011;66537;52.370;4.832;2024-02-26T08:32:10;9.73;;;3.17;;
77451;SDS011;66537;52.370;4.832;2024-02-26T08:34:36;8.43;;;2.90;;
77451;SDS011;66537;52.370;4.832;2024-02-26T08:37:01;7.35;;;3.38;;
77451;SDS011;66537;52.370;4.832;2024-02-26T08:39:27;8.45;;;2.90;;
77451;SDS011;66537;52.370;4.832;2024-02-26T08:41:52;8.23;;;3.23;;
77451;SDS011;66537;52.370;4.832;2024-02-26T08:44:18;8.75;;;2.75;;
77451;SDS011;66537;52.370;4.832;2024-02-26T08:46:43;9.00;;;2.97;;
77451;SDS011;66537;52.370;4.832;2024-02-26T08:49:09;8.50;;;3.47;;
77451;SDS011;66537;52.370;4.832;2024-02-26T08:51:34;9.53;;;3.30;;
77451;SDS011;66537;52.370;4.832;2024-02-26T08:53:59;8.13;;;3.00;;
77451;SDS011;66537;52.370;4.832;2024-02-26T08:56:25;8.30;;;3.20;;
77451;SDS011;66537;52.370;4.832;2024-02-26T08:58:50;6.90;;;3.10;;
77451;SDS011;66537;52.370;4.832;2024-02-26T09:01:18;9.48;;;2.97;;
77451;SDS011;66537;52.370;4.832;2024-02-26T09:03:44;6.85;;;2.60;;
77451;SDS011;66537;52.370;4.832;2024-02-26T09:06:09;8.57;;;2.65;;
77451;SDS011;66537;52.370;4.832;2024-02-26T09:08:36;8.20;;;3.25;;
77451;SDS011;66537;52.370;4.832;2024-02-26T09:11:02;9.57;;;2.92;;
77451;SDS011;66537;52.370;4.832;2024-02-26T09:13:28;8.93;;;2.38;;
77451;SDS011;66537;52.370;4.832;2024-02-26T09:15:53;6.72;;;2.65;;
77451;SDS011;66537;52.370;4.832;2024-02-26T09:18:19;7.53;;;2.90;;
77451;SDS011;66537;52.370;4.832;2024-02-26T09:20:45;7.13;;;2.63;;
77451;SDS011;66537;52.370;4.832;2024-02-26T09:23:10;8.93;;;3.05;;
77451;SDS011;66537;52.370;4.832;2024-02-26T09:25:36;6.63;;;3.05;;
77451;SDS011;66537;52.370;4.832;2024-02-26T09:28:01;7.57;;;2.70;;
77451;SDS011;66537;52.370;4.832;2024-02-26T09:30:27;7.60;;;2.77;;
77451;SDS011;66537;52.370;4.832;2024-02-26T09:32:52;8.87;;;3.33;;
77451;SDS011;66537;52.370;4.832;2024-02-26T09:35:17;6.83;;;2.50;;
77451;SDS011;66537;52.370;4.832;2024-02-26T09:37:43;7.72;;;2.38;;
77451;SDS011;66537;52.370;4.832;2024-02-26T09:40:09;7.32;;;2.42;;
77451;SDS011;66537;52.370;4.832;2024-02-26T09:42:37;6.68;;;2.88;;
77451;SDS011;66537;52.370;4.832;2024-02-26T09:45:09;9.50;;;2.83;;
77451;SDS011;66537;52.370;4.832;2024-02-26T09:47:37;8.48;;;3.00;;
77451;SDS011;66537;52.370;4.832;2024-02-26T09:50:03;8.05;;;3.00;;
77451;SDS011;66537;52.370;4.832;2024-02-26T09:52:32;7.95;;;2.47;;
77451;SDS011;66537;52.370;4.832;2024-02-26T09:54:59;8.07;;;2.72;;
77451;SDS011;66537;52.370;4.832;2024-02-26T09:57:25;7.85;;;2.42;;
77451;SDS011;66537;52.370;4.832;2024-02-26T09:59:51;8.18;;;2.72;;
77451;SDS011;66537;52.370;4.832;2024-02-26T10:02:19;8.70;;;3.40;;
77451;SDS011;66537;52.370;4.832;2024-02-26T10:04:46;6.70;;;2.47;;
77451;SDS011;66537;52.370;4.832;2024-02-26T10:07:13;9.52;;;3.00;;
77451;SDS011;66537;52.370;4.832;2024-02-26T10:09:38;7.75;;;2.92;;
77451;SDS011;66537;52.370;4.832;2024-02-26T10:12:04;9.93;;;2.70;;
77451;SDS011;66537;52.370;4.832;2024-02-26T10:14:32;8.85;;;2.90;;
77451;SDS011;66537;52.370;4.832;2024-02-26T10:16:57;7.30;;;2.67;;
77451;SDS011;66537;52.370;4.832;2024-02-26T10:19:26;6.32;;;2.10;;
77451;SDS011;66537;52.370;4.832;2024-02-26T10:21:58;7.60;;;2.13;;
77451;SDS011;66537;52.370;4.832;2024-02-26T10:24:25;7.15;;;2.60;;
77451;SDS011;66537;52.370;4.832;2024-02-26T10:26:54;7.97;;;2.70;;
77451;SDS011;66537;52.370;4.832;2024-02-26T10:29:20;8.85;;;2.60;;
77451;SDS011;66537;52.370;4.832;2024-02-26T10:31:46;7.00;;;2.88;;
77451;SDS011;66537;52.370;4.832;2024-02-26T10:34:12;8.13;;;2.50;;
77451;SDS011;66537;52.370;4.832;2024-02-26T10:36:38;7.68;;;2.25;;
77451;SDS011;66537;52.370;4.832;2024-02-26T10:39:06;6.85;;;2.45;;
77451;SDS011;66537;52.370;4.832;2024-02-26T10:41:32;6.00;;;1.95;;
77451;SDS011;66537;52.370;4.832;2024-02-26T10:43:58;6.93;;;2.50;;
77451;SDS011;66537;52.370;4.832;2024-02-26T10:46:25;7.50;;;2.25;;
77451;SDS011;66537;52.370;4.832;2024-02-26T10:48:50;9.52;;;2.28;;
77451;SDS011;66537;52.370;4.832;2024-02-26T10:51:17;8.60;;;1.95;;
77451;SDS011;66537;52.370;4.832;2024-02-26T10:53:50;6.53;;;2.38;;
77451;SDS011;66537;52.370;4.832;2024-02-26T10:56:21;6.85;;;2.67;;
77451;SDS011;66537;52.370;4.832;2024-02-26T10:58:52;6.60;;;1.90;;
77451;SDS011;66537;52.370;4.832;2024-02-26T11:01:18;4.70;;;1.65;;
77451;SDS011;66537;52.370;4.832;2024-02-26T11:03:46;6.43;;;1.92;;
77451;SDS011;66537;52.370;4.832;2024-02-26T11:06:13;7.60;;;2.05;;
77451;SDS011;66537;52.370;4.832;2024-02-26T11:08:39;9.32;;;1.83;;
77451;SDS011;66537;52.370;4.832;2024-02-26T11:11:05;5.65;;;1.60;;
77451;SDS011;66537;52.370;4.832;2024-02-26T11:13:31;5.40;;;1.55;;
77451;SDS011;66537;52.370;4.832;2024-02-26T11:15:57;6.68;;;1.60;;
77451;SDS011;66537;52.370;4.832;2024-02-26T11:18:26;7.22;;;1.70;;
77451;SDS011;66537;52.370;4.832;2024-02-26T11:20:52;6.05;;;1.50;;
77451;SDS011;66537;52.370;4.832;2024-02-26T11:23:22;6.97;;;2.20;;
77451;SDS011;66537;52.370;4.832;2024-02-26T11:25:48;4.70;;;1.58;;
77451;SDS011;66537;52.370;4.832;2024-02-26T11:28:16;5.40;;;1.63;;
77451;SDS011;66537;52.370;4.832;2024-02-26T11:30:45;4.50;;;1.55;;
77451;SDS011;66537;52.370;4.832;2024-02-26T11:33:13;5.40;;;1.40;;
77451;SDS011;66537;52.370;4.832;2024-02-26T11:35:39;7.78;;;1.63;;
77451;SDS011;66537;52.370;4.832;2024-02-26T11:38:04;4.45;;;1.48;;
77451;SDS011;66537;52.370;4.832;2024-02-26T11:40:32;5.65;;;1.80;;
77451;SDS011;66537;52.370;4.832;2024-02-26T11:42:58;5.57;;;2.03;;
77451;SDS011;66537;52.370;4.832;2024-02-26T11:48:10;4.85;;;1.45;;
77451;SDS011;66537;52.370;4.832;2024-02-26T11:50:38;9.18;;;2.28;;
77451;SDS011;66537;52.370;4.832;2024-02-26T11:53:24;8.05;;;1.95;;
77451;SDS011;66537;52.370;4.832;2024-02-26T11:58:47;4.70;;;1.48;;
77451;SDS011;66537;52.370;4.832;2024-02-26T12:04:07;7.72;;;2.15;;
77451;SDS011;66537;52.370;4.832;2024-02-26T12:06:52;6.75;;;1.65;;
77451;SDS011;66537;52.370;4.832;2024-02-26T12:09:37;8.63;;;2.00;;
77451;SDS011;66537;52.370;4.832;2024-02-26T12:12:04;8.25;;;1.77;;
77451;SDS011;66537;52.370;4.832;2024-02-26T12:14:35;7.82;;;1.80;;
77451;SDS011;66537;52.370;4.832;2024-02-26T12:17:03;6.60;;;2.13;;
77451;SDS011;66537;52.370;4.832;2024-02-26T12:19:32;5.22;;;1.88;;
77451;SDS011;66537;52.370;4.832;2024-02-26T12:21:58;5.32;;;1.80;;
77451;SDS011;66537;52.370;4.832;2024-02-26T12:24:24;6.93;;;1.73;;
77451;SDS011;66537;52.370;4.832;2024-02-26T12:26:49;4.68;;;1.50;;
77451;SDS011;66537;52.370;4.832;2024-02-26T12:29:14;7.07;;;1.90;;
77451;SDS011;66537;52.370;4.832;2024-02-26T12:31:40;6.93;;;1.77;;
77451;SDS011;66537;52.370;4.832;2024-02-26T12:34:07;6.00;;;1.85;;
77451;SDS011;66537;52.370;4.832;2024-02-26T12:36:34;7.13;;;2.03;;
77451;SDS011;66537;52.370;4.832;2024-02-26T12:39:01;8.38;;;1.42;;
77451;SDS011;66537;52.370;4.832;2024-02-26T12:41:27;6.78;;;1.90;;
77451;SDS011;66537;52.370;4.832;2024-02-26T12:43:54;6.07;;;1.98;;
77451;SDS011;66537;52.370;4.832;2024-02-26T12:46:19;6.78;;;1.70;;
77451;SDS011;66537;52.370;4.832;2024-02-26T12:48:46;6.13;;;1.95;;
77451;SDS011;66537;52.370;4.832;2024-02-26T12:51:12;8.38;;;2.50;;
77451;SDS011;66537;52.370;4.832;2024-02-26T12:53:40;7.65;;;2.17;;
77451;SDS011;66537;52.370;4.832;2024-02-26T12:56:07;7.25;;;1.48;;
77451;SDS011;66537;52.370;4.832;2024-02-26T12:58:33;7.53;;;1.95;;
77451;SDS011;66537;52.370;4.832;2024-02-26T13:01:00;5.38;;;1.13;;
77451;SDS011;66537;52.370;4.832;2024-02-26T13:03:26;8.52;;;2.15;;
77451;SDS011;66537;52.370;4.832;2024-02-26T13:05:52;5.43;;;1.70;;
77451;SDS011;66537;52.370;4.832;2024-02-26T13:08:22;5.82;;;1.25;;
77451;SDS011;66537;52.370;4.832;2024-02-26T13:10:47;6.38;;;1.73;;
77451;SDS011;66537;52.370;4.832;2024-02-26T13:13:16;8.07;;;1.25;;
77451;SDS011;66537;52.370;4.832;2024-02-26T13:15:42;9.25;;;1.15;;
77451;SDS011;66537;52.370;4.832;2024-02-26T13:18:14;4.38;;;1.20;;
77451;SDS011;66537;52.370;4.832;2024-02-26T13:20:40;6.22;;;1.40;;
77451;SDS011;66537;52.370;4.832;2024-02-26T13:23:06;8.18;;;1.55;;
77451;SDS011;66537;52.370;4.832;2024-02-26T13:25:33;4.85;;;1.05;;
77451;SDS011;66537;52.370;4.832;2024-02-26T13:30:42;7.25;;;1.92;;
77451;SDS011;66537;52.370;4.832;2024-02-26T13:33:15;4.20;;;1.13;;
77451;SDS011;66537;52.370;4.832;2024-02-26T13:35:41;5.67;;;1.87;;
77451;SDS011;66537;52.370;4.832;2024-02-26T13:38:06;4.53;;;1.55;;
77451;SDS011;66537;52.370;4.832;2024-02-26T13:40:32;10.43;;;2.00;;
77451;SDS011;66537;52.370;4.832;2024-02-26T13:42:57;7.55;;;2.33;;
77451;SDS011;66537;52.370;4.832;2024-02-26T13:45:23;5.78;;;2.10;;
77451;SDS011;66537;52.370;4.832;2024-02-26T13:47:48;8.10;;;2.08;;
77451;SDS011;66537;52.370;4.832;2024-02-26T13:50:13;6.00;;;1.70;;
77451;SDS011;66537;52.370;4.832;2024-02-26T13:52:39;6.70;;;2.67;;
77451;SDS011;66537;52.370;4.832;2024-02-26T13:55:04;6.50;;;2.37;;
77451;SDS011;66537;52.370;4.832;2024-02-26T13:57:30;10.25;;;2.33;;
77451;SDS011;66537;52.370;4.832;2024-02-26T13:59:56;11.23;;;2.10;;
77451;SDS011;66537;52.370;4.832;2024-02-26T14:02:21;6.37;;;1.83;;
77451;SDS011;66537;52.370;4.832;2024-02-26T14:04:46;10.35;;;2.58;;
77451;SDS011;66537;52.370;4.832;2024-02-26T14:07:12;7.68;;;2.17;;
77451;SDS011;66537;52.370;4.832;2024-02-26T14:09:38;7.35;;;2.08;;
77451;SDS011;66537;52.370;4.832;2024-02-26T14:12:03;6.40;;;2.05;;
77451;SDS011;66537;52.370;4.832;2024-02-26T14:14:29;6.65;;;1.95;;
77451;SDS011;66537;52.370;4.832;2024-02-26T14:16:57;8.38;;;2.20;;
77451;SDS011;66537;52.370;4.832;2024-02-26T14:19:23;6.70;;;2.40;;
77451;SDS011;66537;52.370;4.832;2024-02-26T14:21:48;8.93;;;2.53;;
77451;SDS011;66537;52.370;4.832;2024-02-26T14:24:14;10.87;;;2.30;;
77451;SDS011;66537;52.370;4.832;2024-02-26T14:26:39;6.27;;;1.93;;
77451;SDS011;66537;52.370;4.832;2024-02-26T14:29:05;10.55;;;2.20;;
77451;SDS011;66537;52.370;4.832;2024-02-26T14:31:31;6.15;;;2.20;;
77451;SDS011;66537;52.370;4.832;2024-02-26T14:33:57;9.50;;;3.13;;
77451;SDS011;66537;52.370;4.832;2024-02-26T14:36:22;9.80;;;2.80;;
77451;SDS011;66537;52.370;4.832;2024-02-26T14:38:50;11.45;;;3.22;;
77451;SDS011;66537;52.370;4.832;2024-02-26T14:41:15;8.57;;;2.83;;
77451;SDS011;66537;52.370;4.832;2024-02-26T14:43:41;11.63;;;2.53;;